createdAt,value
2023-05-06T00:01:34.250Z,55.88
2023-05-06T00:04:00.858Z,55.80
2023-05-06T00:06:28.862Z,56.16
2023-05-06T00:08:55.416Z,56.65
2023-05-06T00:11:21.989Z,56.10
2023-05-06T00:13:48.970Z,56.02
2023-05-06T00:16:15.766Z,56.04
2023-05-06T00:18:42.360Z,56.10
2023-05-06T00:21:08.884Z,55.94
2023-05-06T00:23:35.453Z,55.43
2023-05-06T00:26:02.338Z,55.04
2023-05-06T00:28:29.013Z,55.64
2023-05-06T00:30:55.554Z,55.76
2023-05-06T00:33:22.143Z,56.00
2023-05-06T00:35:49.021Z,55.89
2023-05-06T00:38:15.597Z,55.30
2023-05-06T00:40:42.693Z,55.36
2023-05-06T00:43:09.353Z,55.00
2023-05-06T00:45:36.808Z,55.58
2023-05-06T00:48:05.216Z,54.95
2023-05-06T00:50:34.388Z,55.25
2023-05-06T00:53:03.558Z,54.81
2023-05-06T00:55:31.304Z,54.84
2023-05-06T00:57:58.645Z,55.32
2023-05-06T01:00:25.567Z,55.42
2023-05-06T01:02:52.311Z,54.99
2023-05-06T01:05:23.661Z,54.89
2023-05-06T01:08:06.772Z,54.72
2023-05-06T01:10:57.620Z,54.71
2023-05-06T01:13:48.991Z,54.82
2023-05-06T01:16:20.049Z,55.17
2023-05-06T01:18:49.409Z,55.45
2023-05-06T01:21:18.569Z,55.70
2023-05-06T01:23:52.693Z,55.95
2023-05-06T01:26:19.449Z,55.83
2023-05-06T01:28:46.022Z,55.42
2023-05-06T01:31:16.723Z,55.44
2023-05-06T01:34:08.194Z,55.54
2023-05-06T01:36:43.598Z,54.92
2023-05-06T01:39:17.335Z,55.57
2023-05-06T01:41:47.057Z,55.50
2023-05-06T01:44:14.967Z,55.26
2023-05-06T01:46:44.376Z,55.59
2023-05-06T01:49:15.805Z,55.09
2023-05-06T01:51:51.294Z,55.35
2023-05-06T01:54:18.158Z,55.25
2023-05-06T01:56:45.024Z,55.18
2023-05-06T01:59:11.590Z,55.17
2023-05-06T02:01:38.168Z,54.74
2023-05-06T02:04:07.093Z,54.70
2023-05-06T02:06:34.128Z,55.12
2023-05-06T02:09:00.688Z,54.29
2023-05-06T02:11:27.370Z,55.33
2023-05-06T02:14:01.929Z,55.56
2023-05-06T02:16:30.197Z,54.94
2023-05-06T02:18:56.880Z,54.55
2023-05-06T02:21:23.657Z,54.54
2023-05-06T02:23:50.602Z,54.95
2023-05-06T02:26:17.510Z,54.97
2023-05-06T02:28:44.139Z,55.28
2023-05-06T02:31:16.081Z,55.50
2023-05-06T02:33:43.415Z,55.68
2023-05-06T02:36:11.215Z,55.48
2023-05-06T02:38:37.719Z,55.78
2023-05-06T02:41:04.258Z,55.75
2023-05-06T02:43:30.819Z,56.04
2023-05-06T02:45:58.249Z,55.75
2023-05-06T02:48:25.731Z,55.64
2023-05-06T02:50:52.238Z,55.32
2023-05-06T02:53:18.778Z,55.05
2023-05-06T02:55:45.646Z,55.14
2023-05-06T02:58:12.193Z,54.92
2023-05-06T03:00:38.740Z,54.32
2023-05-06T03:03:05.427Z,55.13
2023-05-06T03:05:31.969Z,55.36
2023-05-06T03:07:58.791Z,55.53
2023-05-06T03:10:25.484Z,55.23
2023-05-06T03:12:52.059Z,54.60
2023-05-06T03:15:18.834Z,55.25
2023-05-06T03:17:47.061Z,55.52
2023-05-06T03:20:13.810Z,55.81
2023-05-06T03:22:45.954Z,55.04
2023-05-06T03:25:12.703Z,54.79
2023-05-06T03:27:41.014Z,54.73
2023-05-06T03:30:15.383Z,54.83
2023-05-06T03:32:42.748Z,54.96
2023-05-06T03:35:12.152Z,54.62
2023-05-06T03:37:41.374Z,55.35
2023-05-06T03:40:09.183Z,55.76
2023-05-06T03:42:35.817Z,55.77
2023-05-06T03:45:03.084Z,55.14
2023-05-06T03:47:32.138Z,54.95
2023-05-06T03:49:59.233Z,54.77
2023-05-06T03:52:25.995Z,54.67
2023-05-06T03:54:52.728Z,54.55
2023-05-06T03:57:19.240Z,54.23
2023-05-06T03:59:45.783Z,54.63
2023-05-06T04:02:12.567Z,54.23
2023-05-06T04:04:40.232Z,54.04
2023-05-06T04:07:06.772Z,54.80
2023-05-06T04:09:33.414Z,54.31
2023-05-06T04:12:03.387Z,55.30
2023-05-06T04:14:31.281Z,54.78
2023-05-06T04:16:58.446Z,54.56
2023-05-06T04:19:24.992Z,54.92
2023-05-06T04:21:52.026Z,54.44
2023-05-06T04:24:19.810Z,54.30
2023-05-06T04:26:46.533Z,54.31
2023-05-06T04:29:13.820Z,54.50
2023-05-06T04:31:49.004Z,54.51
2023-05-06T04:34:18.040Z,54.00
2023-05-06T04:36:45.927Z,54.08
2023-05-06T04:39:48.673Z,54.10
2023-05-06T04:42:16.229Z,54.06
2023-05-06T04:44:50.172Z,54.08
2023-05-06T04:47:20.382Z,54.25
2023-05-06T04:49:50.221Z,54.40
2023-05-06T04:52:16.915Z,54.70
2023-05-06T04:54:45.480Z,54.51
2023-05-06T04:57:12.521Z,54.49
2023-05-06T04:59:42.496Z,54.68
2023-05-06T05:02:09.137Z,54.92
2023-05-06T05:04:36.379Z,54.75
2023-05-06T05:07:03.040Z,54.75
2023-05-06T05:09:31.233Z,54.98
2023-05-06T05:11:58.151Z,54.41
2023-05-06T05:14:24.678Z,54.31
2023-05-06T05:16:51.822Z,54.28
2023-05-06T05:19:18.419Z,54.00
2023-05-06T05:21:45.234Z,54.22
2023-05-06T05:24:12.999Z,54.03
2023-05-06T05:26:40.225Z,54.52
2023-05-06T05:29:06.823Z,54.69
2023-05-06T05:31:34.270Z,55.17
2023-05-06T05:34:01.623Z,55.32
2023-05-06T05:36:28.505Z,54.76
2023-05-06T05:38:57.575Z,54.40
2023-05-06T05:41:26.686Z,54.09
2023-05-06T05:43:54.480Z,54.96
2023-05-06T05:46:21.401Z,55.17
2023-05-06T05:48:49.423Z,55.15
2023-05-06T05:51:17.923Z,54.97
2023-05-06T05:53:45.566Z,55.76
2023-05-06T05:56:13.267Z,55.12
2023-05-06T05:58:41.749Z,54.92
2023-05-06T06:01:08.973Z,55.55
2023-05-06T06:03:36.436Z,55.28
2023-05-06T06:06:05.414Z,55.59
2023-05-06T06:08:33.110Z,55.48
2023-05-06T06:11:00.974Z,55.71
2023-05-06T06:13:34.253Z,55.68
2023-05-06T06:16:01.008Z,55.46
2023-05-06T06:18:27.683Z,55.66
2023-05-06T06:20:54.244Z,55.56
2023-05-06T06:23:21.582Z,55.30
2023-05-06T06:25:48.175Z,55.33
2023-05-06T06:28:15.493Z,54.81
2023-05-06T06:30:43.365Z,55.43
2023-05-06T06:33:09.975Z,55.13
2023-05-06T06:35:36.609Z,55.66
2023-05-06T06:38:03.211Z,55.38
2023-05-06T06:40:30.303Z,55.97
2023-05-06T06:42:56.828Z,55.97
2023-05-06T06:45:42.120Z,56.30
2023-05-06T06:48:08.714Z,56.32
2023-05-06T06:50:35.370Z,56.21
2023-05-06T06:53:03.596Z,55.26
2023-05-06T06:55:31.394Z,56.06
2023-05-06T06:57:57.914Z,56.25
2023-05-06T07:00:24.577Z,55.60
2023-05-06T07:02:51.111Z,55.18
2023-05-06T07:05:18.296Z,55.50
2023-05-06T07:07:44.920Z,54.84
2023-05-06T07:10:11.594Z,54.44
2023-05-06T07:12:38.179Z,54.40
2023-05-06T07:15:06.829Z,54.87
2023-05-06T07:17:33.691Z,55.12
2023-05-06T07:20:00.760Z,54.38
2023-05-06T07:22:28.920Z,54.63
2023-05-06T07:24:55.731Z,52.90
2023-05-06T07:27:22.330Z,53.27
2023-05-06T07:29:49.106Z,53.22
2023-05-06T07:32:15.872Z,53.09
2023-05-06T07:34:42.531Z,53.22
2023-05-06T07:37:09.080Z,52.28
2023-05-06T07:39:35.825Z,51.79
2023-05-06T07:42:02.354Z,51.98
2023-05-06T07:44:28.886Z,52.24
2023-05-06T07:46:55.851Z,51.75
2023-05-06T07:49:22.550Z,51.41
2023-05-06T07:51:49.063Z,51.80
2023-05-06T07:54:15.745Z,51.51
2023-05-06T07:56:43.908Z,51.13
2023-05-06T07:59:10.436Z,51.41
2023-05-06T08:01:36.983Z,51.25
2023-05-06T08:04:03.751Z,50.84
2023-05-06T08:06:30.418Z,51.01
2023-05-06T08:08:56.934Z,50.56
2023-05-06T08:11:23.628Z,49.30
2023-05-06T08:13:50.266Z,48.68
2023-05-06T08:16:17.172Z,49.96
2023-05-06T08:18:43.731Z,48.97
2023-05-06T08:21:10.961Z,48.15
2023-05-06T08:23:37.775Z,47.88
2023-05-06T08:26:04.409Z,48.42
2023-05-06T08:28:31.529Z,47.81
2023-05-06T08:30:58.033Z,47.82
2023-05-06T08:33:24.605Z,48.40
2023-05-06T08:35:52.132Z,47.97
2023-05-06T08:38:18.736Z,47.70
2023-05-06T08:40:45.470Z,48.49
2023-05-06T08:43:19.892Z,47.44
2023-05-06T08:45:46.473Z,47.75
2023-05-06T08:48:13.210Z,47.85
2023-05-06T08:50:43.168Z,47.70
2023-05-06T08:53:13.624Z,47.49
2023-05-06T08:55:43.539Z,47.80
2023-05-06T08:58:13.472Z,47.29
2023-05-06T09:00:40.240Z,47.23
2023-05-06T09:03:06.955Z,46.43
2023-05-06T09:05:33.711Z,47.21
2023-05-06T09:08:00.348Z,46.90
2023-05-06T09:10:31.855Z,46.93
2023-05-06T09:12:58.388Z,46.42
2023-05-06T09:15:28.508Z,45.54
2023-05-06T09:17:56.040Z,45.29
2023-05-06T09:20:22.688Z,44.90
2023-05-06T09:22:49.354Z,45.60
2023-05-06T09:25:16.285Z,44.58
2023-05-06T09:27:42.859Z,44.09
2023-05-06T09:30:14.370Z,44.21
2023-05-06T09:32:41.868Z,44.34
2023-05-06T09:35:09.912Z,44.29
2023-05-06T09:37:36.661Z,44.26
2023-05-06T09:40:03.485Z,44.46
2023-05-06T09:42:30.780Z,43.56
2023-05-06T09:45:01.642Z,43.32
2023-05-06T09:47:34.670Z,42.55
2023-05-06T09:50:02.653Z,42.17
2023-05-06T09:52:29.874Z,42.62
2023-05-06T09:54:57.340Z,41.85
2023-05-06T09:57:23.987Z,42.07
2023-05-06T09:59:53.753Z,42.28
2023-05-06T10:02:22.466Z,42.72
2023-05-06T10:04:49.697Z,41.14
2023-05-06T10:07:22.569Z,42.04
2023-05-06T10:09:50.691Z,43.70
2023-05-06T10:12:18.699Z,42.10
2023-05-06T10:14:45.265Z,42.50
2023-05-06T10:17:13.742Z,41.89
2023-05-06T10:19:44.767Z,41.10
2023-05-06T10:22:41.296Z,40.92
2023-05-06T10:25:17.366Z,40.92
2023-05-06T10:27:45.174Z,40.69
2023-05-06T10:30:14.844Z,41.42
2023-05-06T10:32:43.421Z,40.58
2023-05-06T10:35:35.784Z,39.83
2023-05-06T10:38:05.214Z,41.19
2023-05-06T10:40:32.146Z,40.87
2023-05-06T10:43:21.213Z,39.90
2023-05-06T10:46:11.161Z,39.42
2023-05-06T10:49:06.210Z,39.53
2023-05-06T10:51:33.930Z,39.88
2023-05-06T10:54:08.263Z,38.83
2023-05-06T10:56:36.148Z,37.96
2023-05-06T10:59:08.346Z,39.04
2023-05-06T11:01:40.039Z,37.02
2023-05-06T11:04:12.034Z,36.12
2023-05-06T11:06:46.133Z,34.98
2023-05-06T11:09:17.888Z,35.38
2023-05-06T11:12:02.574Z,35.67
2023-05-06T11:14:31.241Z,35.89
2023-05-06T11:16:59.568Z,36.12
2023-05-06T11:19:33.988Z,35.85
2023-05-06T11:22:03.663Z,36.66
2023-05-06T11:24:40.193Z,36.64
2023-05-06T11:27:07.445Z,37.67
2023-05-06T11:29:33.992Z,38.46
2023-05-06T11:32:00.764Z,37.87
2023-05-06T11:34:31.813Z,38.27
2023-05-06T11:37:00.643Z,37.98
2023-05-06T11:39:36.626Z,38.06
2023-05-06T11:42:07.367Z,37.79
2023-05-06T11:44:35.744Z,37.43
2023-05-06T11:47:05.902Z,36.61
2023-05-06T11:49:42.761Z,36.08
2023-05-06T11:52:10.679Z,35.15
2023-05-06T11:54:42.302Z,34.62
2023-05-06T11:57:09.963Z,33.86
2023-05-06T11:59:40.875Z,33.80
2023-05-06T12:02:10.237Z,34.46
2023-05-06T12:04:42.738Z,33.51
2023-05-06T12:07:14.068Z,34.27
2023-05-06T12:09:43.357Z,35.21
2023-05-06T12:12:11.019Z,34.69
2023-05-06T12:14:38.711Z,33.62
2023-05-06T12:17:05.651Z,32.44
2023-05-06T12:19:32.834Z,32.63
2023-05-06T12:22:18.898Z,31.83
2023-05-06T12:24:46.783Z,31.71
2023-05-06T12:27:13.403Z,31.81
2023-05-06T12:29:40.319Z,31.47
2023-05-06T12:32:09.465Z,32.80
2023-05-06T12:34:40.306Z,31.90
2023-05-06T12:37:08.505Z,30.70
2023-05-06T12:39:39.319Z,30.81
2023-05-06T12:42:06.638Z,29.53
2023-05-06T12:44:36.154Z,28.61
2023-05-06T12:47:07.309Z,28.78
2023-05-06T12:49:51.328Z,30.54
2023-05-06T12:52:19.206Z,30.75
2023-05-06T12:54:46.179Z,31.37
2023-05-06T12:57:13.092Z,30.87
2023-05-06T12:59:39.807Z,31.59
2023-05-06T13:02:06.873Z,31.66
2023-05-06T13:04:33.422Z,30.84
2023-05-06T13:07:00.051Z,29.99
2023-05-06T13:09:26.797Z,30.51
2023-05-06T13:11:57.207Z,29.96
2023-05-06T13:14:23.875Z,29.74
2023-05-06T13:16:51.200Z,29.95
2023-05-06T13:19:31.457Z,29.11
2023-05-06T13:22:08.328Z,29.36
2023-05-06T13:24:34.933Z,28.78
2023-05-06T13:27:02.137Z,29.19
2023-05-06T13:29:29.679Z,29.26
2023-05-06T13:31:56.454Z,28.29
2023-05-06T13:34:23.047Z,29.70
2023-05-06T13:36:50.674Z,30.35
2023-05-06T13:39:17.254Z,30.31
2023-05-06T13:41:46.537Z,28.54
2023-05-06T13:44:13.846Z,28.48
2023-05-06T13:46:40.438Z,28.54
2023-05-06T13:49:06.968Z,27.64
2023-05-06T13:51:34.507Z,28.29
2023-05-06T13:54:02.177Z,28.35
2023-05-06T13:56:28.700Z,27.20
2023-05-06T13:58:55.371Z,27.03
2023-05-06T14:01:22.801Z,28.17
2023-05-06T14:03:49.345Z,28.54
2023-05-06T14:06:16.253Z,28.12
2023-05-06T14:08:42.961Z,28.20
2023-05-06T14:11:12.386Z,28.56
2023-05-06T14:13:39.790Z,29.54
2023-05-06T14:16:06.888Z,29.92
2023-05-06T14:18:33.843Z,30.00
2023-05-06T14:21:00.456Z,29.96
2023-05-06T14:23:26.962Z,30.46
2023-05-06T14:25:53.495Z,28.89
2023-05-06T14:28:20.156Z,28.34
2023-05-06T14:30:47.477Z,28.92
2023-05-06T14:33:13.993Z,29.41
2023-05-06T14:35:42.182Z,28.65
2023-05-06T14:38:09.636Z,29.46
2023-05-06T14:40:36.904Z,28.77
2023-05-06T14:43:04.053Z,30.13
2023-05-06T14:45:30.946Z,30.04
2023-05-06T14:47:57.627Z,29.45
2023-05-06T14:50:24.160Z,29.94
2023-05-06T14:52:51.024Z,27.76
2023-05-06T14:55:18.023Z,27.80
2023-05-06T14:57:44.574Z,28.29
2023-05-06T15:00:14.567Z,26.49
2023-05-06T15:02:41.984Z,25.65
2023-05-06T15:05:10.102Z,25.73
2023-05-06T15:07:36.904Z,26.84
2023-05-06T15:10:04.119Z,28.05
2023-05-06T15:12:30.954Z,28.03
2023-05-06T15:14:57.586Z,27.79
2023-05-06T15:17:24.724Z,27.41
2023-05-06T15:19:51.529Z,26.81
2023-05-06T15:22:18.319Z,26.42
2023-05-06T15:24:45.270Z,26.69
2023-05-06T15:27:11.810Z,27.69
2023-05-06T15:29:39.125Z,26.84
2023-05-06T15:32:05.944Z,25.93
2023-05-06T15:34:32.604Z,26.81
2023-05-06T15:37:01.550Z,27.50
2023-05-06T15:39:28.522Z,27.38
2023-05-06T15:41:55.157Z,29.16
2023-05-06T15:44:21.744Z,27.88
2023-05-06T15:46:48.291Z,27.91
2023-05-06T15:49:46.784Z,28.12
2023-05-06T15:52:01.665Z,28.02
2023-05-06T15:54:28.775Z,27.79
2023-05-06T15:56:56.267Z,26.54
2023-05-06T15:59:22.951Z,27.51
2023-05-06T16:04:19.319Z,28.94
2023-05-06T16:06:46.050Z,28.80
2023-05-06T16:09:12.678Z,29.56
2023-05-06T16:11:39.203Z,29.15
2023-05-06T16:14:05.801Z,30.02
2023-05-06T16:16:32.454Z,29.56
2023-05-06T16:18:59.069Z,29.60
2023-05-06T16:21:25.697Z,29.57
2023-05-06T16:23:52.301Z,29.95
2023-05-06T16:26:18.890Z,30.27
2023-05-06T16:28:45.540Z,29.80
2023-05-06T16:31:12.210Z,29.79
2023-05-06T16:33:38.839Z,30.28
2023-05-06T16:36:05.808Z,30.39
2023-05-06T16:38:32.329Z,31.07
2023-05-06T16:40:58.952Z,31.04
2023-05-06T16:43:25.632Z,30.93
2023-05-06T16:45:52.168Z,30.75
2023-05-06T16:48:18.999Z,30.92
2023-05-06T16:50:46.014Z,30.55
2023-05-06T16:53:12.616Z,30.46
2023-05-06T16:55:39.174Z,30.63
2023-05-06T16:58:05.787Z,30.50
2023-05-06T17:00:32.692Z,30.49
2023-05-06T17:02:59.502Z,30.75
2023-05-06T17:05:27.935Z,31.34
2023-05-06T17:07:54.471Z,30.95
2023-05-06T17:10:21.936Z,31.49
2023-05-06T17:12:48.494Z,31.26
2023-05-06T17:15:15.100Z,31.38
2023-05-06T17:17:41.763Z,32.19
2023-05-06T17:20:08.927Z,31.25
2023-05-06T17:22:35.768Z,31.60
2023-05-06T17:25:03.525Z,31.83
2023-05-06T17:27:30.238Z,32.06
2023-05-06T17:29:56.909Z,32.13
2023-05-06T17:32:23.460Z,32.49
2023-05-06T17:34:50.104Z,32.31
2023-05-06T17:37:16.689Z,32.16
2023-05-06T17:39:43.206Z,33.39
2023-05-06T17:42:09.887Z,34.30
2023-05-06T17:44:37.976Z,35.18
2023-05-06T17:47:04.576Z,35.73
2023-05-06T17:49:31.150Z,35.01
2023-05-06T17:51:59.308Z,35.24
2023-05-06T17:54:26.760Z,34.81
2023-05-06T17:56:53.363Z,35.46
2023-05-06T17:59:20.115Z,35.42
2023-05-06T18:01:47.334Z,35.67
2023-05-06T18:04:14.284Z,35.34
2023-05-06T18:06:42.307Z,35.80
2023-05-06T18:09:10.271Z,35.62
2023-05-06T18:11:37.995Z,35.90
2023-05-06T18:14:05.332Z,36.79
2023-05-06T18:16:32.118Z,36.63
2023-05-06T18:19:00.755Z,37.52
2023-05-06T18:21:27.740Z,37.29
2023-05-06T18:24:01.895Z,37.88
2023-05-06T18:26:43.858Z,37.92
2023-05-06T18:29:11.872Z,38.85
2023-05-06T18:31:38.463Z,39.02
2023-05-06T18:34:05.010Z,39.72
2023-05-06T18:36:31.926Z,40.00
2023-05-06T18:38:58.515Z,40.25
2023-05-06T18:41:25.063Z,40.44
2023-05-06T18:43:51.687Z,40.23
2023-05-06T18:46:18.412Z,40.77
2023-05-06T18:48:45.354Z,41.15
2023-05-06T18:51:13.719Z,41.17
2023-05-06T18:53:41.179Z,41.21
2023-05-06T18:56:08.673Z,41.54
2023-05-06T18:58:39.468Z,41.52
2023-05-06T19:01:09.969Z,41.71
2023-05-06T19:03:38.681Z,41.99
2023-05-06T19:06:10.444Z,41.90
2023-05-06T19:08:37.220Z,42.21
2023-05-06T19:11:03.847Z,42.04
2023-05-06T19:13:31.198Z,42.24
2023-05-06T19:15:57.737Z,42.17
2023-05-06T19:18:24.227Z,42.53
2023-05-06T19:20:51.017Z,42.90
2023-05-06T19:23:18.026Z,42.74
2023-05-06T19:25:44.639Z,43.10
2023-05-06T19:28:11.887Z,43.11
2023-05-06T19:30:38.516Z,43.15
2023-05-06T19:33:05.324Z,43.24
2023-05-06T19:35:31.986Z,43.30
2023-05-06T19:37:58.814Z,43.35
2023-05-06T19:40:25.411Z,43.72
2023-05-06T19:42:52.196Z,43.89
2023-05-06T19:45:19.513Z,43.59
2023-05-06T19:47:46.343Z,43.99
2023-05-06T19:50:13.329Z,44.13
2023-05-06T19:52:40.379Z,44.01
2023-05-06T19:55:07.482Z,44.17
2023-05-06T19:57:34.268Z,44.22
2023-05-06T20:00:05.172Z,44.24
2023-05-06T20:02:32.891Z,44.54
2023-05-06T20:05:00.615Z,45.01
2023-05-06T20:07:27.416Z,45.18
2023-05-06T20:09:55.866Z,45.30
2023-05-06T20:12:23.696Z,44.86
2023-05-06T20:14:50.333Z,45.10
2023-05-06T20:17:16.961Z,45.72
2023-05-06T20:19:44.835Z,45.62
2023-05-06T20:22:11.767Z,46.23
2023-05-06T20:24:40.762Z,45.76
2023-05-06T20:27:07.327Z,46.34
2023-05-06T20:29:34.065Z,46.08
2023-05-06T20:32:01.023Z,45.99
2023-05-06T20:34:27.849Z,46.42
2023-05-06T20:36:55.235Z,46.12
2023-05-06T20:39:22.078Z,46.18
2023-05-06T20:41:48.712Z,46.59
2023-05-06T20:44:15.484Z,46.30
2023-05-06T20:46:42.010Z,46.68
2023-05-06T20:49:08.607Z,46.88
2023-05-06T20:51:35.227Z,46.35
2023-05-06T20:54:01.850Z,46.42
2023-05-06T20:56:28.626Z,46.77
2023-05-06T20:58:55.838Z,46.98
2023-05-06T21:01:23.576Z,46.76
2023-05-06T21:03:50.599Z,47.26
2023-05-06T21:06:18.704Z,46.87
2023-05-06T21:08:46.402Z,46.96
2023-05-06T21:11:13.349Z,47.42
2023-05-06T21:13:40.117Z,47.69
2023-05-06T21:16:06.627Z,47.85
2023-05-06T21:18:33.243Z,47.53
2023-05-06T21:20:59.965Z,47.69
2023-05-06T21:23:26.718Z,48.16
2023-05-06T21:25:53.238Z,47.78
2023-05-06T21:28:20.131Z,47.90
2023-05-06T21:30:46.740Z,47.98
2023-05-06T21:33:13.350Z,48.17
2023-05-06T21:35:39.869Z,48.32
2023-05-06T21:38:06.749Z,48.19
2023-05-06T21:40:33.334Z,48.15
2023-05-06T21:42:59.904Z,47.92
2023-05-06T21:45:26.729Z,47.95
2023-05-06T21:47:53.552Z,48.35
2023-05-06T21:50:20.307Z,48.40
2023-05-06T21:52:46.902Z,48.31
2023-05-06T21:55:13.679Z,47.56
2023-05-06T21:57:40.692Z,47.52
2023-05-06T22:00:11.765Z,47.57
2023-05-06T22:02:40.121Z,48.17
2023-05-06T22:05:08.249Z,48.29
2023-05-06T22:07:35.799Z,48.25
2023-05-06T22:10:02.654Z,48.22
2023-05-06T22:12:29.257Z,47.81
2023-05-06T22:14:55.872Z,47.71
2023-05-06T22:17:22.460Z,48.46
2023-05-06T22:19:49.298Z,48.60
2023-05-06T22:22:16.464Z,48.41
2023-05-06T22:24:43.056Z,48.57
2023-05-06T22:27:09.652Z,48.30
2023-05-06T22:29:36.377Z,48.35
2023-05-06T22:32:03.200Z,48.57
2023-05-06T22:34:30.096Z,48.41
2023-05-06T22:36:58.361Z,48.44
2023-05-06T22:39:27.184Z,48.52
2023-05-06T22:41:53.849Z,48.35
2023-05-06T22:44:21.028Z,48.37
2023-05-06T22:46:47.682Z,48.91
2023-05-06T22:49:15.776Z,48.84
2023-05-06T22:51:42.451Z,48.95
2023-05-06T22:54:08.985Z,49.47
2023-05-06T22:56:35.488Z,49.20
2023-05-06T22:59:02.053Z,49.42
2023-05-06T23:01:32.010Z,49.54
2023-05-06T23:03:59.354Z,49.15
2023-05-06T23:06:27.592Z,49.35
2023-05-06T23:08:54.143Z,49.48
2023-05-06T23:11:20.743Z,49.52
2023-05-06T23:13:47.404Z,49.30
2023-05-06T23:16:14.594Z,49.56
2023-05-06T23:18:41.510Z,49.47
2023-05-06T23:21:08.277Z,49.25
2023-05-06T23:23:34.813Z,49.11
2023-05-06T23:26:01.341Z,48.99
2023-05-06T23:28:28.004Z,49.42
2023-05-06T23:30:54.608Z,49.74
2023-05-06T23:33:21.186Z,49.88
2023-05-06T23:35:47.719Z,49.50
2023-05-06T23:38:14.362Z,49.60
2023-05-06T23:40:40.891Z,49.84
2023-05-06T23:43:09.684Z,50.03
2023-05-06T23:45:36.197Z,50.11
2023-05-06T23:48:03.220Z,49.48
2023-05-06T23:50:29.829Z,49.57
2023-05-06T23:52:56.341Z,49.04
2023-05-06T23:55:23.033Z,49.66
2023-05-06T23:57:49.532Z,49.14
